Time;durP1;ratioP1;P1;durP2;ratioP2;P2;SDS_P1;SDS_P2;PMS_P1;PMS_P2;Temp;Humidity;BMP_temperature;BMP_pressure;BME280_temperature;BME280_humidity;BME280_pressure;Samples;Min_cycle;Max_cycle;Signal;HPM_P1;HPM_P2
2022/03/23 00:01:19;;;;;;;7.83;5.23;;;5.40;48.40;;;;;;955159;147;27265;-74
2022/03/23 00:03:46;;;;;;;5.33;4.80;;;5.30;48.50;;;;;;956228;145;27303;-74
2022/03/23 00:06:12;;;;;;;6.93;4.67;;;5.30;48.50;;;;;;954363;147;27412;-74
2022/03/23 00:08:39;;;;;;;10.30;5.93;;;5.30;48.70;;;;;;954977;147;27415;-74
2022/03/23 00:11:06;;;;;;;5.50;4.87;;;5.20;48.90;;;;;;955028;147;27366;-74
2022/03/23 00:13:32;;;;;;;5.80;5.20;;;5.20;49.00;;;;;;955112;147;27493;-74
2022/03/23 00:15:59;;;;;;;6.33;5.03;;;5.20;49.20;;;;;;955101;147;27317;-74
2022/03/23 00:18:25;;;;;;;6.53;4.83;;;5.10;49.20;;;;;;955196;147;27340;-74
2022/03/23 00:20:52;;;;;;;6.23;4.77;;;5.10;49.20;;;;;;954921;147;27448;-74
2022/03/23 00:23:19;;;;;;;5.57;4.73;;;5.00;49.00;;;;;;955278;147;27392;-74
2022/03/23 00:25:45;;;;;;;6.63;4.70;;;5.00;49.00;;;;;;955172;147;27394;-74
2022/03/23 00:28:12;;;;;;;4.80;4.20;;;5.00;49.00;;;;;;955338;147;27639;-74
2022/03/23 00:30:38;;;;;;;5.30;4.27;;;4.90;48.90;;;;;;954279;147;27813;-74
2022/03/23 00:33:05;;;;;;;5.30;4.47;;;4.90;48.80;;;;;;955292;147;27347;-74
2022/03/23 00:35:31;;;;;;;4.20;3.80;;;4.80;48.80;;;;;;955881;147;27367;-74
2022/03/23 00:38:01;;;;;;;5.30;4.50;;;4.70;48.70;;;;;;955057;147;27253;-74
2022/03/23 00:40:30;;;;;;;5.20;4.70;;;4.70;48.80;;;;;;954807;147;27335;-74
2022/03/23 00:42:54;;;;;;;5.70;4.87;;;4.60;48.80;;;;;;954956;147;27685;-74
2022/03/23 00:45:21;;;;;;;6.10;4.43;;;4.60;48.90;;;;;;955568;147;27356;-74
2022/03/23 00:47:48;;;;;;;8.20;4.30;;;4.50;49.60;;;;;;954963;147;27354;-74
2022/03/23 00:50:14;;;;;;;5.07;4.57;;;4.40;49.10;;;;;;955400;147;27299;-74
2022/03/23 00:52:40;;;;;;;5.50;5.00;;;4.40;49.20;;;;;;955248;147;27391;-74
2022/03/23 00:55:09;;;;;;;6.73;4.70;;;4.30;49.30;;;;;;955079;147;27339;-74
2022/03/23 00:57:34;;;;;;;6.23;5.10;;;4.30;49.30;;;;;;955184;147;27367;-74
2022/03/23 01:00:00;;;;;;;7.20;4.80;;;4.20;49.40;;;;;;954342;147;28065;-77
2022/03/23 01:02:27;;;;;;;4.93;4.43;;;4.20;49.40;;;;;;953496;147;27438;-77
2022/03/23 01:04:53;;;;;;;6.20;5.07;;;4.20;49.70;;;;;;955178;147;27390;-77
2022/03/23 01:07:20;;;;;;;4.43;4.03;;;4.20;49.90;;;;;;955303;147;27342;-77
2022/03/23 01:09:46;;;;;;;7.00;4.80;;;4.10;49.90;;;;;;955085;147;27415;-76
2022/03/23 01:12:13;;;;;;;6.20;4.50;;;4.10;50.00;;;;;;954757;147;27780;-76
2022/03/23 01:14:42;;;;;;;4.97;4.47;;;4.10;50.20;;;;;;954819;147;27279;-77
2022/03/23 01:17:09;;;;;;;5.80;4.83;;;4.10;50.30;;;;;;955515;147;27325;-76
2022/03/23 01:19:36;;;;;;;4.83;4.33;;;4.10;50.30;;;;;;954368;147;27283;-77
2022/03/23 01:22:02;;;;;;;5.27;4.63;;;4.10;50.50;;;;;;954474;147;27355;-77
2022/03/23 01:24:29;;;;;;;6.07;4.43;;;4.10;50.50;;;;;;955280;147;27419;-77
2022/03/23 01:26:55;;;;;;;9.37;4.43;;;4.10;50.60;;;;;;955016;147;27311;-77
2022/03/23 01:29:22;;;;;;;3.97;3.67;;;4.10;50.60;;;;;;954846;147;27261;-74
2022/03/23 01:31:49;;;;;;;7.13;4.50;;;4.10;50.60;;;;;;954829;147;27941;-74
2022/03/23 01:34:15;;;;;;;5.73;4.33;;;4.10;50.70;;;;;;954681;147;27358;-74
2022/03/23 01:36:42;;;;;;;4.80;4.40;;;4.10;50.80;;;;;;954765;147;27379;-77
2022/03/23 01:39:08;;;;;;;6.37;4.83;;;4.10;51.00;;;;;;955037;147;27604;-77
2022/03/23 01:41:35;;;;;;;5.87;4.23;;;4.10;51.00;;;;;;954748;147;27413;-76
2022/03/23 01:44:01;;;;;;;5.37;4.57;;;4.00;51.10;;;;;;955292;147;27336;-77
2022/03/23 01:46:28;;;;;;;6.27;4.23;;;4.00;51.10;;;;;;955447;147;27441;-76
2022/03/23 01:48:55;;;;;;;6.23;5.03;;;4.00;51.20;;;;;;955397;147;27308;-77
2022/03/23 01:51:21;;;;;;;6.23;5.27;;;3.90;51.20;;;;;;954667;147;27303;-77
2022/03/23 01:53:48;;;;;;;5.20;4.70;;;3.90;51.30;;;;;;955269;147;27872;-74
2022/03/23 01:56:14;;;;;;;4.43;4.00;;;3.90;51.40;;;;;;955545;147;27288;-74
2022/03/23 01:58:41;;;;;;;5.23;4.73;;;3.80;51.40;;;;;;955624;147;27370;-74
2022/03/23 02:01:07;;;;;;;4.90;4.37;;;3.80;51.50;;;;;;955362;147;27444;-74
2022/03/23 02:03:34;;;;;;;7.33;4.87;;;3.80;51.70;;;;;;955568;147;27421;-74
2022/03/23 02:06:01;;;;;;;6.30;5.50;;;3.80;51.90;;;;;;955439;147;27336;-74
2022/03/23 02:08:27;;;;;;;6.63;4.93;;;3.70;52.10;;;;;;955480;147;27402;-74
2022/03/23 02:10:54;;;;;;;4.27;3.83;;;3.70;52.20;;;;;;954645;147;28290;-74
2022/03/23 02:13:20;;;;;;;6.07;4.40;;;3.70;52.20;;;;;;955042;147;27363;-75
2022/03/23 02:15:47;;;;;;;4.67;4.27;;;3.70;52.30;;;;;;954549;147;27338;-74
2022/03/23 02:18:14;;;;;;;4.57;4.17;;;3.70;52.40;;;;;;955469;147;27362;-75
2022/03/23 02:20:40;;;;;;;5.33;4.83;;;3.70;52.40;;;;;;954774;147;27324;-75
2022/03/23 02:23:08;;;;;;;6.10;4.93;;;3.70;52.50;;;;;;952932;147;27413;-74
2022/03/23 02:25:33;;;;;;;6.63;5.50;;;3.70;52.60;;;;;;943834;149;27376;-75
2022/03/23 02:28:00;;;;;;;5.50;4.20;;;3.70;52.80;;;;;;943702;148;27367;-74
2022/03/23 02:30:26;;;;;;;5.90;5.07;;;3.70;53.00;;;;;;944161;148;27302;-75
2022/03/23 02:32:53;;;;;;;6.60;5.13;;;3.60;52.90;;;;;;944019;149;27334;-74
2022/03/23 02:35:20;;;;;;;6.03;5.40;;;3.60;53.00;;;;;;943819;149;27387;-75
2022/03/23 02:37:46;;;;;;;5.37;4.87;;;3.60;53.10;;;;;;944199;149;27364;-75
2022/03/23 02:40:15;;;;;;;5.87;4.93;;;3.60;53.10;;;;;;943670;149;28601;-74
2022/03/23 02:42:39;;;;;;;7.40;5.23;;;3.60;53.20;;;;;;943585;149;27278;-75
2022/03/23 02:45:06;;;;;;;6.47;5.80;;;3.60;53.30;;;;;;944166;149;27278;-74
2022/03/23 02:47:33;;;;;;;4.90;4.43;;;3.50;53.30;;;;;;943707;149;27767;-75
2022/03/23 02:49:59;;;;;;;6.53;5.43;;;3.50;53.40;;;;;;944023;149;27476;-74
2022/03/23 02:52:28;;;;;;;6.40;5.73;;;3.50;53.50;;;;;;944585;149;27707;-75
2022/03/23 03:03:17;;;;;;;6.10;5.50;;;3.40;54.00;;;;;;917653;154;27412;-75
2022/03/23 03:05:44;;;;;;;7.77;6.13;;;3.40;54.20;;;;;;893480;157;27429;-75
2022/03/23 03:10:58;;;;;;;12.27;5.73;;;3.30;54.60;;;;;;909352;154;27493;-75
2022/03/23 03:13:25;;;;;;;4.87;4.20;;;3.30;54.60;;;;;;909909;153;27803;-75
2022/03/23 03:15:52;;;;;;;5.10;4.53;;;3.30;54.50;;;;;;918463;154;27313;-75
2022/03/23 03:18:21;;;;;;;6.40;5.40;;;3.30;54.50;;;;;;918629;151;27366;-75
2022/03/23 03:20:47;;;;;;;6.37;5.73;;;3.30;54.60;;;;;;919681;154;27310;-75
2022/03/23 03:23:15;;;;;;;8.60;6.03;;;3.20;54.60;;;;;;918398;154;27398;-75
2022/03/23 03:25:40;;;;;;;8.73;5.23;;;3.20;54.80;;;;;;919480;154;27483;-75
2022/03/23 03:28:07;;;;;;;7.30;5.67;;;3.20;55.00;;;;;;919931;154;27371;-75
2022/03/23 03:30:34;;;;;;;6.37;4.83;;;3.20;54.90;;;;;;918892;153;27390;-75
2022/03/23 03:33:00;;;;;;;6.60;5.90;;;3.10;54.90;;;;;;919848;154;27445;-75
2022/03/23 03:35:27;;;;;;;7.10;5.23;;;3.10;54.90;;;;;;919188;154;27410;-75
2022/03/23 03:37:54;;;;;;;6.00;4.60;;;3.10;54.90;;;;;;926954;153;27454;-75
2022/03/23 03:40:20;;;;;;;6.33;5.30;;;3.00;54.90;;;;;;923854;153;27400;-75
2022/03/23 03:42:46;;;;;;;6.97;5.23;;;3.00;55.00;;;;;;922529;152;27985;-75
2022/03/23 03:45:13;;;;;;;4.93;4.43;;;3.00;55.00;;;;;;921720;152;27394;-75
2022/03/23 03:47:40;;;;;;;5.70;4.40;;;2.90;55.00;;;;;;923206;152;27387;-75
2022/03/23 03:50:06;;;;;;;7.20;5.00;;;2.90;55.00;;;;;;922827;152;28493;-75
2022/03/23 03:52:33;;;;;;;6.40;4.30;;;2.80;55.10;;;;;;923993;152;27483;-75
2022/03/23 03:54:59;;;;;;;6.93;5.33;;;2.80;55.80;;;;;;922976;151;27331;-75
2022/03/23 03:57:26;;;;;;;6.23;5.57;;;2.70;55.20;;;;;;923741;152;27329;-75
2022/03/23 03:59:52;;;;;;;6.43;5.03;;;2.70;55.40;;;;;;922483;151;27976;-75
2022/03/23 04:02:19;;;;;;;6.30;5.00;;;2.60;55.40;;;;;;917547;154;27412;-75
2022/03/23 04:04:46;;;;;;;6.87;4.80;;;2.60;55.50;;;;;;914181;155;27353;-75
2022/03/23 04:07:12;;;;;;;5.47;5.00;;;2.60;55.60;;;;;;916909;155;27388;-75
2022/03/23 04:09:39;;;;;;;6.63;5.17;;;2.50;55.70;;;;;;907212;155;27390;-75
2022/03/23 04:12:05;;;;;;;6.57;5.30;;;2.50;55.70;;;;;;918635;152;27487;-75
2022/03/23 04:14:32;;;;;;;6.47;4.97;;;2.50;55.70;;;;;;915307;155;27418;-75
2022/03/23 04:16:59;;;;;;;6.77;5.47;;;2.50;55.10;;;;;;914274;155;27345;-75
2022/03/23 04:19:25;;;;;;;6.23;4.83;;;2.40;55.80;;;;;;914432;155;27325;-75
2022/03/23 04:21:52;;;;;;;11.47;5.77;;;2.40;55.80;;;;;;912270;155;27387;-75
2022/03/23 04:24:18;;;;;;;6.20;5.17;;;2.40;55.70;;;;;;917480;152;27397;-74
2022/03/23 04:26:45;;;;;;;7.20;4.47;;;2.40;55.80;;;;;;916978;153;29400;-75
2022/03/23 04:29:12;;;;;;;6.37;5.10;;;2.30;55.20;;;;;;917216;153;27398;-75
2022/03/23 04:31:38;;;;;;;5.87;5.03;;;2.30;55.90;;;;;;916820;153;27345;-75
2022/03/23 04:34:05;;;;;;;8.23;5.97;;;2.30;56.00;;;;;;917600;153;27380;-75
2022/03/23 04:36:31;;;;;;;5.87;5.30;;;2.30;56.00;;;;;;917589;153;27381;-75
2022/03/23 04:38:58;;;;;;;5.87;5.10;;;2.20;56.10;;;;;;905306;155;27391;-74
2022/03/23 04:41:24;;;;;;;5.53;4.97;;;2.20;56.10;;;;;;915290;155;27718;-75
2022/03/23 04:43:51;;;;;;;4.93;4.43;;;2.20;56.20;;;;;;914683;155;27448;-75
2022/03/23 04:46:18;;;;;;;6.00;4.80;;;2.20;56.20;;;;;;914890;155;27442;-75
2022/03/23 04:48:44;;;;;;;7.30;5.53;;;2.10;56.20;;;;;;915669;153;27372;-74
2022/03/23 04:51:12;;;;;;;6.27;4.57;;;2.20;56.30;;;;;;914732;155;28508;-75
2022/03/23 04:53:37;;;;;;;4.47;4.07;;;2.10;56.40;;;;;;920701;153;27313;-75
2022/03/23 04:56:04;;;;;;;5.03;4.30;;;2.10;56.40;;;;;;924078;152;27266;-75
2022/03/23 04:58:31;;;;;;;4.40;4.00;;;2.10;56.50;;;;;;924054;152;27294;-75
2022/03/23 05:00:57;;;;;;;6.60;4.47;;;2.10;56.50;;;;;;924506;152;27451;-75
2022/03/23 05:03:25;;;;;;;7.23;4.90;;;2.10;56.50;;;;;;928716;152;27272;-75
2022/03/23 05:05:50;;;;;;;5.80;5.20;;;2.10;57.20;;;;;;922132;153;27368;-74
2022/03/23 05:08:17;;;;;;;6.10;5.10;;;2.00;56.70;;;;;;922956;153;27418;-74
2022/03/23 05:10:43;;;;;;;6.70;5.43;;;2.00;56.90;;;;;;922323;153;27467;-74
2022/03/23 05:13:11;;;;;;;6.93;4.80;;;2.00;56.90;;;;;;922245;153;27418;-75
2022/03/23 05:15:37;;;;;;;7.90;5.10;;;2.00;57.00;;;;;;907119;155;27521;-74
2022/03/23 05:18:04;;;;;;;7.50;4.87;;;2.00;57.00;;;;;;921769;152;27415;-74
2022/03/23 05:20:30;;;;;;;7.47;5.47;;;2.00;57.00;;;;;;916767;154;27390;-74
2022/03/23 05:22:56;;;;;;;6.90;5.60;;;2.00;57.00;;;;;;916452;154;27399;-75
2022/03/23 05:25:23;;;;;;;7.07;6.07;;;2.00;57.10;;;;;;917192;154;27472;-75
2022/03/23 05:27:50;;;;;;;6.43;5.00;;;2.00;57.20;;;;;;917146;154;27365;-74
2022/03/23 05:30:16;;;;;;;5.23;4.73;;;2.00;57.30;;;;;;916532;154;27434;-74
2022/03/23 05:32:43;;;;;;;6.00;5.07;;;2.00;57.30;;;;;;916517;154;27348;-74
2022/03/23 05:35:09;;;;;;;7.87;5.23;;;2.10;57.40;;;;;;918516;154;27306;-75
2022/03/23 05:37:36;;;;;;;7.23;5.60;;;2.10;57.50;;;;;;928787;152;27389;-75
2022/03/23 05:40:03;;;;;;;5.97;5.37;;;2.10;57.60;;;;;;930229;152;27415;-74
2022/03/23 05:42:29;;;;;;;7.73;5.77;;;2.10;57.60;;;;;;915479;155;27414;-75
2022/03/23 05:44:56;;;;;;;6.17;5.50;;;2.10;57.60;;;;;;913624;155;27366;-74
2022/03/23 05:47:22;;;;;;;6.23;4.90;;;2.20;57.70;;;;;;920079;154;27471;-75
2022/03/23 05:49:49;;;;;;;6.67;5.70;;;2.20;57.80;;;;;;919034;154;27416;-74
2022/03/23 05:52:16;;;;;;;6.87;5.43;;;2.30;57.90;;;;;;919865;154;27356;-74
2022/03/23 05:54:42;;;;;;;6.90;6.00;;;2.40;58.20;;;;;;926710;152;27346;-74
2022/03/23 05:57:09;;;;;;;6.47;5.80;;;2.60;58.70;;;;;;918417;154;27311;-74
2022/03/23 05:59:35;;;;;;;6.03;5.40;;;2.90;59.10;;;;;;907709;155;27451;-74
2022/03/23 06:02:02;;;;;;;10.27;6.07;;;3.20;59.50;;;;;;908083;155;27503;-74
2022/03/23 06:04:28;;;;;;;7.87;6.80;;;3.70;59.80;;;;;;908018;155;27547;-74
2022/03/23 06:06:55;;;;;;;9.03;7.20;;;4.20;59.70;;;;;;922436;154;27895;-74
2022/03/23 06:09:21;;;;;;;7.77;6.67;;;4.70;59.60;;;;;;929513;152;27467;-74
2022/03/23 06:11:48;;;;;;;9.20;6.87;;;5.30;59.30;;;;;;923741;152;27422;-74
2022/03/23 06:14:15;;;;;;;8.20;7.23;;;5.80;58.90;;;;;;922686;153;27339;-75
2022/03/23 06:16:41;;;;;;;9.30;7.73;;;6.40;58.60;;;;;;925050;153;27391;-74
2022/03/23 06:19:10;;;;;;;10.90;7.87;;;7.00;58.20;;;;;;918405;153;29598;-74
2022/03/23 06:21:34;;;;;;;9.47;7.93;;;7.60;57.80;;;;;;917999;154;27284;-74
2022/03/23 06:24:02;;;;;;;9.50;8.50;;;8.30;57.30;;;;;;920578;154;27350;-75
2022/03/23 06:26:28;;;;;;;9.47;8.47;;;8.90;56.80;;;;;;919979;154;27438;-75
2022/03/23 06:28:54;;;;;;;10.67;9.03;;;9.50;56.20;;;;;;920481;153;27470;-74
2022/03/23 06:31:22;;;;;;;9.93;7.90;;;10.20;55.60;;;;;;918214;153;27387;-74
2022/03/23 06:33:47;;;;;;;7.60;6.80;;;10.90;55.00;;;;;;917322;154;27354;-75
2022/03/23 06:36:14;;;;;;;7.83;7.03;;;11.50;54.40;;;;;;918263;153;27345;-75
2022/03/23 06:38:41;;;;;;;11.80;6.97;;;12.20;53.80;;;;;;918730;154;27334;-74
2022/03/23 06:41:07;;;;;;;8.07;6.37;;;12.80;53.00;;;;;;919670;154;27452;-73
2022/03/23 06:43:34;;;;;;;8.13;6.60;;;13.50;52.40;;;;;;920423;154;27517;-74
2022/03/23 06:46:01;;;;;;;8.73;6.40;;;14.10;51.60;;;;;;921835;153;27379;-74
2022/03/23 06:48:27;;;;;;;6.50;5.80;;;14.70;50.80;;;;;;920317;154;27445;-74
2022/03/23 06:50:53;;;;;;;6.70;5.90;;;15.30;50.00;;;;;;920728;153;27687;-74
2022/03/23 06:53:20;;;;;;;7.07;6.00;;;15.90;49.30;;;;;;921732;154;27454;-74
2022/03/23 06:55:47;;;;;;;8.95;6.17;;;16.40;48.50;;;;;;921706;154;27373;-74
2022/03/23 06:58:13;;;;;;;7.08;5.92;;;16.90;47.60;;;;;;918167;154;27316;-74
2022/03/23 07:00:40;;;;;;;6.87;6.03;;;17.40;47.10;;;;;;919577;154;27279;-74
2022/03/23 07:03:08;;;;;;;9.90;6.05;;;17.90;46.50;;;;;;919760;154;27360;-74
2022/03/23 07:05:35;;;;;;;6.28;5.67;;;18.30;45.90;;;;;;917742;154;27393;-74
2022/03/23 07:10:41;;;;;;;6.17;5.22;;;19.10;44.90;;;;;;871436;163;27433;-75
2022/03/23 07:13:08;;;;;;;6.62;5.95;;;19.60;44.50;;;;;;898809;155;27327;-74
2022/03/23 07:15:34;;;;;;;5.75;5.22;;;20.10;44.00;;;;;;918466;155;27433;-74
2022/03/23 07:18:01;;;;;;;8.83;5.60;;;20.50;43.50;;;;;;917895;154;27393;-74
2022/03/23 07:20:27;;;;;;;8.68;6.17;;;21.00;43.00;;;;;;916670;154;27381;-74
2022/03/23 07:22:54;;;;;;;7.72;6.15;;;21.40;42.50;;;;;;916440;155;27332;-74
2022/03/23 07:25:21;;;;;;;6.67;6.00;;;21.90;41.90;;;;;;915604;155;27431;-74
2022/03/23 07:27:47;;;;;;;6.87;5.67;;;22.40;41.40;;;;;;916351;154;27262;-75
2022/03/23 07:30:14;;;;;;;7.22;5.47;;;22.80;40.80;;;;;;913976;155;27467;-75
2022/03/23 07:32:40;;;;;;;6.85;6.08;;;23.20;40.30;;;;;;917515;155;27447;-74
2022/03/23 07:35:07;;;;;;;5.92;5.42;;;23.60;39.70;;;;;;914823;155;27287;-74
2022/03/23 07:37:34;;;;;;;5.70;5.20;;;24.10;39.30;;;;;;915170;155;27364;-74
2022/03/23 07:40:00;;;;;;;6.15;5.65;;;24.50;38.90;;;;;;915912;155;27338;-76
2022/03/23 07:42:27;;;;;;;6.50;5.90;;;24.90;38.50;;;;;;916988;155;27461;-76
2022/03/23 07:44:53;;;;;;;7.08;6.40;;;25.30;38.00;;;;;;917916;155;27380;-74
2022/03/23 07:47:20;;;;;;;6.80;6.10;;;25.70;37.50;;;;;;916472;155;27237;-74
2022/03/23 07:49:46;;;;;;;7.67;6.33;;;26.10;37.00;;;;;;917859;155;27348;-75
2022/03/23 07:52:13;;;;;;;7.58;6.87;;;26.40;36.40;;;;;;917231;155;27312;-75
2022/03/23 07:54:40;;;;;;;7.03;6.10;;;26.70;36.10;;;;;;916573;155;27560;-75
2022/03/23 07:57:06;;;;;;;7.17;6.12;;;27.00;35.70;;;;;;917604;155;27486;-75
2022/03/23 07:59:34;;;;;;;7.33;5.97;;;27.40;35.60;;;;;;915245;155;27361;-75
2022/03/23 08:01:59;;;;;;;7.17;6.47;;;27.70;35.20;;;;;;918471;154;27342;-75
2022/03/23 08:04:26;;;;;;;6.67;5.97;;;28.00;34.80;;;;;;917267;155;27287;-75
2022/03/23 08:06:53;;;;;;;6.67;6.17;;;28.30;34.20;;;;;;915769;153;27861;-75
2022/03/23 08:09:19;;;;;;;7.75;7.03;;;28.60;33.90;;;;;;915666;152;27499;-75
2022/03/23 08:11:46;;;;;;;9.40;6.72;;;28.90;33.50;;;;;;917169;153;27353;-75
2022/03/23 08:14:12;;;;;;;7.35;6.62;;;29.20;33.40;;;;;;916219;153;27406;-76
2022/03/23 08:16:39;;;;;;;7.83;6.25;;;29.50;32.90;;;;;;916910;153;27811;-76
2022/03/23 08:19:06;;;;;;;10.35;6.10;;;29.80;32.60;;;;;;915797;153;27480;-76
2022/03/23 08:21:33;;;;;;;7.30;6.10;;;30.00;32.20;;;;;;917807;153;27399;-75
2022/03/23 08:23:59;;;;;;;6.65;5.97;;;30.30;31.80;;;;;;916931;153;27299;-76
2022/03/23 08:26:25;;;;;;;7.62;6.30;;;30.60;31.50;;;;;;917140;153;27339;-76
2022/03/23 08:28:52;;;;;;;6.60;5.78;;;30.80;31.20;;;;;;917369;153;27443;-76
2022/03/23 08:31:19;;;;;;;5.45;4.95;;;31.00;30.80;;;;;;918637;153;27405;-76
2022/03/23 08:33:45;;;;;;;5.37;4.95;;;31.20;30.40;;;;;;906672;155;27518;-76
2022/03/23 08:36:12;;;;;;;6.22;4.97;;;31.40;30.10;;;;;;913243;155;27367;-76
2022/03/23 08:38:38;;;;;;;5.17;4.78;;;31.60;29.90;;;;;;916313;153;27380;-76
2022/03/23 08:41:05;;;;;;;5.87;5.35;;;31.80;29.70;;;;;;917820;153;27370;-76
2022/03/23 08:43:31;;;;;;;7.28;4.95;;;31.90;29.50;;;;;;919808;152;27494;-76
2022/03/23 08:46:00;;;;;;;5.35;4.72;;;32.10;29.40;;;;;;921554;152;27816;-76
2022/03/23 08:48:25;;;;;;;5.95;5.42;;;32.30;29.20;;;;;;920470;152;27441;-76
2022/03/23 08:50:51;;;;;;;6.87;5.45;;;32.50;29.00;;;;;;920732;152;27301;-77
2022/03/23 08:53:18;;;;;;;5.80;5.30;;;32.70;29.00;;;;;;920588;152;27328;-77
2022/03/23 08:55:44;;;;;;;5.42;5.00;;;32.80;28.90;;;;;;922414;152;27447;-76
2022/03/23 08:58:11;;;;;;;5.92;5.42;;;33.00;28.70;;;;;;920139;152;27400;-76
2022/03/23 09:00:40;;;;;;;5.62;5.12;;;33.20;28.50;;;;;;920097;152;27352;-77
2022/03/23 09:03:04;;;;;;;6.15;5.55;;;33.40;28.40;;;;;;916320;155;27308;-76
2022/03/23 09:05:31;;;;;;;7.33;5.83;;;33.50;28.20;;;;;;914024;155;27447;-77
2022/03/23 09:07:57;;;;;;;7.12;6.30;;;33.70;28.10;;;;;;904710;157;27489;-77
2022/03/23 09:10:24;;;;;;;7.58;5.87;;;33.80;28.00;;;;;;905483;156;27489;-77
2022/03/23 09:12:51;;;;;;;6.03;5.37;;;33.90;27.80;;;;;;904517;157;26259;-77
2022/03/23 09:15:17;;;;;;;9.30;6.25;;;34.00;27.50;;;;;;905094;157;27413;-77
2022/03/23 09:17:44;;;;;;;7.12;6.42;;;34.10;27.40;;;;;;905523;157;27411;-77
2022/03/23 09:20:12;;;;;;;6.28;5.67;;;34.10;27.20;;;;;;904954;155;27491;-77
2022/03/23 09:22:37;;;;;;;6.70;6.10;;;34.10;27.10;;;;;;908282;157;27396;-77
2022/03/23 09:25:06;;;;;;;6.03;5.53;;;34.20;27.00;;;;;;906020;157;27359;-77
2022/03/23 09:27:34;;;;;;;6.37;5.78;;;34.30;26.80;;;;;;903794;157;27391;-77
2022/03/23 09:30:00;;;;;;;6.10;5.60;;;34.40;26.70;;;;;;905711;156;27438;-77
2022/03/23 09:32:26;;;;;;;5.95;5.45;;;34.40;26.40;;;;;;907409;157;27379;-77
2022/03/23 09:34:53;;;;;;;6.05;5.53;;;34.40;26.30;;;;;;905722;157;27406;-77
2022/03/23 09:40:04;;;;;;;6.03;5.53;;;34.40;25.80;;;;;;905201;157;26406;-77
2022/03/23 09:42:31;;;;;;;5.47;4.97;;;34.40;25.80;;;;;;905323;157;27473;-77
2022/03/23 09:44:57;;;;;;;5.28;4.78;;;34.30;25.60;;;;;;905724;157;27370;-77
2022/03/23 09:47:24;;;;;;;5.03;4.62;;;34.20;25.30;;;;;;905853;157;27388;-77
2022/03/23 09:49:50;;;;;;;4.97;4.58;;;34.00;25.00;;;;;;906033;157;27345;-77
2022/03/23 09:52:17;;;;;;;6.70;4.92;;;33.80;24.90;;;;;;906249;155;27346;-77
2022/03/23 09:54:45;;;;;;;5.08;4.67;;;33.70;24.90;;;;;;906180;157;27342;-77
2022/03/23 09:57:10;;;;;;;4.90;4.50;;;33.50;24.70;;;;;;905667;154;27466;-77
2022/03/23 09:59:37;;;;;;;5.20;4.80;;;33.20;24.40;;;;;;904738;157;27423;-77
2022/03/23 10:02:03;;;;;;;5.35;4.87;;;32.80;24.30;;;;;;905895;157;27339;-77
2022/03/23 10:04:52;;;;;;;5.25;4.75;;;32.50;24.20;;;;;;905559;157;27307;-77
2022/03/23 10:07:27;;;;;;;5.90;5.40;;;32.10;24.70;;;;;;912779;154;27872;-77
2022/03/23 10:10:06;;;;;;;6.62;5.05;;;31.70;24.20;;;;;;919422;154;27361;-77
2022/03/23 10:13:09;;;;;;;6.97;5.70;;;31.30;24.30;;;;;;920368;154;27376;-77
2022/03/23 10:15:54;;;;;;;5.80;5.40;;;30.80;24.40;;;;;;923433;154;27379;-77
2022/03/23 10:18:21;;;;;;;5.70;5.30;;;30.40;24.50;;;;;;918577;154;27442;-77
2022/03/23 10:20:48;;;;;;;6.25;5.65;;;29.90;24.50;;;;;;921850;154;27485;-77
2022/03/23 10:23:14;;;;;;;5.83;5.33;;;29.50;24.50;;;;;;920974;154;27411;-77
2022/03/23 10:25:42;;;;;;;6.20;5.70;;;29.10;24.50;;;;;;920530;154;28082;-76
2022/03/23 10:28:13;;;;;;;6.28;5.67;;;28.80;24.50;;;;;;922070;154;27325;-77
2022/03/23 10:30:40;;;;;;;6.42;5.92;;;28.40;24.40;;;;;;918461;154;27442;-77
2022/03/23 10:33:16;;;;;;;5.80;5.33;;;28.00;24.30;;;;;;919434;154;27401;-77
2022/03/23 10:35:42;;;;;;;5.80;5.35;;;27.70;24.50;;;;;;921523;154;27475;-77
2022/03/23 10:38:17;;;;;;;5.33;4.83;;;27.30;24.60;;;;;;919700;154;27337;-77
2022/03/23 10:40:44;;;;;;;6.08;5.50;;;27.00;24.70;;;;;;919507;154;27892;-77
2022/03/23 10:43:10;;;;;;;5.33;4.83;;;26.60;24.90;;;;;;921757;154;27383;-77
2022/03/23 10:45:37;;;;;;;5.78;5.28;;;26.30;25.00;;;;;;920908;154;27399;-77
2022/03/23 10:48:13;;;;;;;6.55;5.95;;;26.10;25.00;;;;;;921840;154;27522;-77
2022/03/23 10:50:39;;;;;;;6.80;6.15;;;25.80;25.10;;;;;;919798;154;27406;-77
2022/03/23 10:53:05;;;;;;;6.50;5.75;;;25.50;25.10;;;;;;917516;154;27363;-76
2022/03/23 10:55:35;;;;;;;6.22;5.62;;;25.20;25.30;;;;;;918492;154;27496;-77
2022/03/23 10:58:02;;;;;;;6.33;5.83;;;25.00;25.30;;;;;;921169;154;27406;-76
2022/03/23 11:00:34;;;;;;;6.85;6.15;;;24.70;25.30;;;;;;919432;154;27347;-77
2022/03/23 11:03:00;;;;;;;6.42;5.83;;;24.50;25.60;;;;;;919616;154;27414;-76
2022/03/23 11:05:33;;;;;;;5.97;5.35;;;24.20;25.70;;;;;;918311;154;27335;-76
2022/03/23 11:08:08;;;;;;;6.08;5.58;;;24.00;25.60;;;;;;909264;154;27453;-77
2022/03/23 11:16:07;;;;;;;6.37;5.85;;;23.50;26.10;;;;;;904419;157;27376;-76
2022/03/23 11:18:34;;;;;;;7.70;6.40;;;23.30;26.50;;;;;;905969;157;27366;-77
2022/03/23 11:21:00;;;;;;;6.25;5.75;;;23.20;26.70;;;;;;905907;157;27904;-77
2022/03/23 11:23:27;;;;;;;6.58;5.97;;;23.10;26.70;;;;;;904105;156;28343;-77
2022/03/23 11:25:54;;;;;;;8.00;5.58;;;23.00;26.60;;;;;;905272;157;27345;-77
2022/03/23 11:28:20;;;;;;;6.05;5.42;;;23.00;26.60;;;;;;903555;157;27422;-77
2022/03/23 11:30:47;;;;;;;5.85;5.33;;;22.90;26.60;;;;;;902555;157;27407;-77
2022/03/23 11:33:13;;;;;;;7.05;5.10;;;22.90;26.50;;;;;;902607;156;27402;-77
2022/03/23 11:35:48;;;;;;;5.95;4.90;;;22.80;26.30;;;;;;901953;156;27473;-77
2022/03/23 11:38:13;;;;;;;5.35;4.78;;;22.80;26.30;;;;;;905047;156;27404;-77
2022/03/23 11:40:39;;;;;;;5.75;5.20;;;22.70;26.20;;;;;;904892;157;27719;-76
2022/03/23 11:43:06;;;;;;;5.95;4.80;;;22.70;25.60;;;;;;908818;155;27520;-77
2022/03/23 11:45:32;;;;;;;5.03;4.70;;;22.60;25.90;;;;;;903550;157;27383;-77
2022/03/23 11:48:02;;;;;;;4.72;4.33;;;22.50;25.70;;;;;;906409;157;27395;-76
2022/03/23 11:50:50;;;;;;;5.72;5.22;;;22.50;25.80;;;;;;903138;155;27437;-77
2022/03/23 11:53:35;;;;;;;4.95;4.55;;;22.40;26.00;;;;;;906132;155;27470;-77
2022/03/23 11:56:02;;;;;;;5.58;4.90;;;22.40;26.00;;;;;;904095;157;27403;-77
2022/03/23 11:58:40;;;;;;;6.17;4.85;;;22.40;26.00;;;;;;904093;155;28002;-77
2022/03/23 12:01:06;;;;;;;5.83;5.33;;;22.40;25.90;;;;;;905903;157;27430;-76
2022/03/23 12:03:45;;;;;;;5.50;5.00;;;22.40;25.80;;;;;;904011;157;27368;-76
2022/03/23 12:06:12;;;;;;;6.10;4.87;;;22.30;25.80;;;;;;905585;155;27343;-77
2022/03/23 12:08:59;;;;;;;6.72;5.15;;;22.30;25.80;;;;;;906510;154;27497;-77
2022/03/23 12:11:34;;;;;;;4.90;4.50;;;22.30;25.90;;;;;;904832;157;27755;-77
2022/03/23 12:14:04;;;;;;;4.45;4.05;;;22.30;25.70;;;;;;905638;157;27972;-76
2022/03/23 12:16:52;;;;;;;4.42;4.12;;;22.20;25.80;;;;;;905576;157;27342;-76
2022/03/23 12:19:19;;;;;;;4.87;4.37;;;22.20;25.50;;;;;;904670;157;27358;-76
2022/03/23 12:22:06;;;;;;;4.15;3.85;;;22.10;25.40;;;;;;904600;157;27478;-76
2022/03/23 12:24:36;;;;;;;4.47;4.12;;;22.10;25.10;;;;;;904096;157;27373;-77
2022/03/23 12:27:02;;;;;;;4.75;4.12;;;22.00;25.10;;;;;;904290;156;27492;-77
2022/03/23 12:29:29;;;;;;;4.90;4.17;;;22.00;25.30;;;;;;905215;155;28283;-76
2022/03/23 12:32:03;;;;;;;4.78;4.37;;;21.90;25.50;;;;;;905554;157;27382;-76
2022/03/23 12:34:28;;;;;;;4.83;4.33;;;21.90;25.60;;;;;;905117;157;27397;-76
2022/03/23 12:36:59;;;;;;;4.25;3.90;;;21.90;25.70;;;;;;906422;154;27314;-77
2022/03/23 12:39:24;;;;;;;4.28;3.87;;;21.90;25.50;;;;;;905998;157;27473;-76
2022/03/23 12:41:51;;;;;;;5.20;3.90;;;21.80;25.40;;;;;;905919;155;27389;-76
2022/03/23 12:44:19;;;;;;;5.03;4.62;;;21.80;25.30;;;;;;897758;157;27359;-76
2022/03/23 12:46:44;;;;;;;5.97;4.00;;;21.80;25.30;;;;;;898042;158;27357;-76
2022/03/23 12:57:52;;;;;;;5.00;4.15;;;21.80;25.40;;;;;;915514;154;27360;-76
2022/03/23 13:00:26;;;;;;;5.33;4.05;;;21.70;25.40;;;;;;902614;157;27398;-76
2022/03/23 13:02:56;;;;;;;4.45;4.05;;;21.70;25.40;;;;;;917488;154;27481;-76
2022/03/23 13:05:23;;;;;;;5.40;4.53;;;21.70;25.50;;;;;;848897;158;27382;-76
2022/03/23 13:07:49;;;;;;;6.05;4.87;;;21.70;25.50;;;;;;902254;158;27453;-76
2022/03/23 13:10:18;;;;;;;4.85;4.45;;;21.60;25.50;;;;;;912758;155;27359;-76
2022/03/23 13:12:44;;;;;;;4.67;4.28;;;21.70;25.60;;;;;;913828;154;27561;-76
2022/03/23 13:15:12;;;;;;;8.45;4.85;;;21.60;25.50;;;;;;912253;155;27470;-77
2022/03/23 13:17:41;;;;;;;5.33;4.83;;;21.60;25.50;;;;;;913326;155;27472;-76
2022/03/23 13:20:08;;;;;;;5.72;4.95;;;21.60;25.50;;;;;;916121;155;27337;-76
2022/03/23 13:22:34;;;;;;;4.87;4.47;;;21.60;25.60;;;;;;914266;155;27491;-76